sensor_id;sensor_type;location;lat;lon;timestamp;temperature;humidity
11083;DHT22;5595;50.186;8.468;2023-03-21T00:02:24;9.40;99.90
11083;DHT22;5595;50.186;8.468;2023-03-21T00:04:52;9.40;99.90
11083;DHT22;5595;50.186;8.468;2023-03-21T00:07:19;9.40;99.90
11083;DHT22;5595;50.186;8.468;2023-03-21T00:09:46;9.40;99.90
11083;DHT22;5595;50.186;8.468;2023-03-21T00:12:13;9.50;99.90
11083;DHT22;5595;50.186;8.468;2023-03-21T00:14:42;9.60;99.90
11083;DHT22;5595;50.186;8.468;2023-03-21T00:17:09;9.60;99.90
11083;DHT22;5595;50.186;8.468;2023-03-21T00:19:37;9.50;99.90
11083;DHT22;5595;50.186;8.468;2023-03-21T00:22:06;9.60;99.90
11083;DHT22;5595;50.186;8.468;2023-03-21T00:24:36;9.50;99.90
11083;DHT22;5595;50.186;8.468;2023-03-21T00:27:04;9.50;99.90
11083;DHT22;5595;50.186;8.468;2023-03-21T00:29:31;9.50;99.90
11083;DHT22;5595;50.186;8.468;2023-03-21T00:31:58;9.50;99.90
11083;DHT22;5595;50.186;8.468;2023-03-21T00:34:25;9.50;99.90
11083;DHT22;5595;50.186;8.468;2023-03-21T00:36:53;9.50;99.90
11083;DHT22;5595;50.186;8.468;2023-03-21T00:39:20;9.50;99.90
11083;DHT22;5595;50.186;8.468;2023-03-21T00:41:47;9.50;99.90
11083;DHT22;5595;50.186;8.468;2023-03-21T00:44:14;9.90;99.90
11083;DHT22;5595;50.186;8.468;2023-03-21T00:46:42;9.90;99.90
11083;DHT22;5595;50.186;8.468;2023-03-21T00:49:09;9.50;99.90
11083;DHT22;5595;50.186;8.468;2023-03-21T00:51:36;10.00;99.90
11083;DHT22;5595;50.186;8.468;2023-03-21T00:54:04;9.50;99.90
11083;DHT22;5595;50.186;8.468;2023-03-21T00:56:32;9.60;99.90
11083;DHT22;5595;50.186;8.468;2023-03-21T00:58:59;9.50;99.90
11083;DHT22;5595;50.186;8.468;2023-03-21T01:01:26;9.50;99.90
11083;DHT22;5595;50.186;8.468;2023-03-21T01:03:56;9.40;99.90
11083;DHT22;5595;50.186;8.468;2023-03-21T01:06:30;9.70;99.90
11083;DHT22;5595;50.186;8.468;2023-03-21T01:08:57;9.40;99.90
11083;DHT22;5595;50.186;8.468;2023-03-21T01:11:27;9.40;99.90
11083;DHT22;5595;50.186;8.468;2023-03-21T01:13:54;9.30;99.90
11083;DHT22;5595;50.186;8.468;2023-03-21T01:16:21;9.40;99.90
11083;DHT22;5595;50.186;8.468;2023-03-21T01:18:48;9.30;99.90
11083;DHT22;5595;50.186;8.468;2023-03-21T01:21:16;9.30;99.90
11083;DHT22;5595;50.186;8.468;2023-03-21T01:23:43;9.30;99.90
11083;DHT22;5595;50.186;8.468;2023-03-21T01:26:12;9.30;99.90
11083;DHT22;5595;50.186;8.468;2023-03-21T01:28:42;9.30;99.90
11083;DHT22;5595;50.186;8.468;2023-03-21T01:31:11;9.20;99.90
11083;DHT22;5595;50.186;8.468;2023-03-21T01:33:38;9.30;99.90
11083;DHT22;5595;50.186;8.468;2023-03-21T01:36:06;9.10;99.90
11083;DHT22;5595;50.186;8.468;2023-03-21T01:38:33;9.50;99.90
11083;DHT22;5595;50.186;8.468;2023-03-21T01:41:00;9.50;99.90
11083;DHT22;5595;50.186;8.468;2023-03-21T01:43:29;9.10;99.90
11083;DHT22;5595;50.186;8.468;2023-03-21T01:46:21;9.10;99.90
11083;DHT22;5595;50.186;8.468;2023-03-21T01:48:52;9.00;99.90
11083;DHT22;5595;50.186;8.468;2023-03-21T01:51:21;8.90;99.90
11083;DHT22;5595;50.186;8.468;2023-03-21T01:53:48;9.30;99.90
11083;DHT22;5595;50.186;8.468;2023-03-21T01:56:20;8.70;99.90
11083;DHT22;5595;50.186;8.468;2023-03-21T01:58:50;8.70;99.90
11083;DHT22;5595;50.186;8.468;2023-03-21T02:01:21;8.60;99.90
11083;DHT22;5595;50.186;8.468;2023-03-21T02:03:49;8.60;99.90
11083;DHT22;5595;50.186;8.468;2023-03-21T02:06:25;8.50;99.90
11083;DHT22;5595;50.186;8.468;2023-03-21T02:08:58;8.50;99.90
11083;DHT22;5595;50.186;8.468;2023-03-21T02:11:27;8.40;99.90
11083;DHT22;5595;50.186;8.468;2023-03-21T02:13:56;8.30;99.90
11083;DHT22;5595;50.186;8.468;2023-03-21T02:16:31;8.30;99.90
11083;DHT22;5595;50.186;8.468;2023-03-21T02:19:16;8.30;99.90
11083;DHT22;5595;50.186;8.468;2023-03-21T02:22:13;8.20;99.90
11083;DHT22;5595;50.186;8.468;2023-03-21T02:28:05;8.10;99.90
11083;DHT22;5595;50.186;8.468;2023-03-21T02:30:52;8.20;99.90
11083;DHT22;5595;50.186;8.468;2023-03-21T02:36:51;7.80;99.90
11083;DHT22;5595;50.186;8.468;2023-03-21T02:39:23;7.80;99.90
11083;DHT22;5595;50.186;8.468;2023-03-21T02:42:00;7.50;99.90
11083;DHT22;5595;50.186;8.468;2023-03-21T02:44:34;7.70;99.90
11083;DHT22;5595;50.186;8.468;2023-03-21T02:47:08;7.70;99.90
11083;DHT22;5595;50.186;8.468;2023-03-21T02:49:41;7.80;99.90
11083;DHT22;5595;50.186;8.468;2023-03-21T02:52:13;7.40;99.90
11083;DHT22;5595;50.186;8.468;2023-03-21T02:54:42;7.30;99.90
11083;DHT22;5595;50.186;8.468;2023-03-21T02:57:10;7.20;99.90
11083;DHT22;5595;50.186;8.468;2023-03-21T02:59:39;7.20;99.90
11083;DHT22;5595;50.186;8.468;2023-03-21T03:02:07;7.10;99.90
11083;DHT22;5595;50.186;8.468;2023-03-21T03:04:34;7.10;99.90
11083;DHT22;5595;50.186;8.468;2023-03-21T03:07:12;7.00;99.90
11083;DHT22;5595;50.186;8.468;2023-03-21T03:10:00;7.10;99.90
11083;DHT22;5595;50.186;8.468;2023-03-21T03:12:34;7.80;99.90
11083;DHT22;5595;50.186;8.468;2023-03-21T03:15:12;6.90;99.90
11083;DHT22;5595;50.186;8.468;2023-03-21T03:17:49;7.60;99.90
11083;DHT22;5595;50.186;8.468;2023-03-21T03:20:34;7.30;99.90
11083;DHT22;5595;50.186;8.468;2023-03-21T03:23:12;7.30;99.90
11083;DHT22;5595;50.186;8.468;2023-03-21T03:25:44;7.70;99.90
11083;DHT22;5595;50.186;8.468;2023-03-21T03:28:16;7.40;99.90
11083;DHT22;5595;50.186;8.468;2023-03-21T03:30:45;7.50;99.90
11083;DHT22;5595;50.186;8.468;2023-03-21T03:33:13;7.00;99.90
11083;DHT22;5595;50.186;8.468;2023-03-21T03:35:42;7.40;99.90
11083;DHT22;5595;50.186;8.468;2023-03-21T03:38:11;7.50;99.90
11083;DHT22;5595;50.186;8.468;2023-03-21T03:40:40;7.30;99.90
11083;DHT22;5595;50.186;8.468;2023-03-21T03:43:11;7.50;99.90
11083;DHT22;5595;50.186;8.468;2023-03-21T03:45:45;7.50;99.90
11083;DHT22;5595;50.186;8.468;2023-03-21T03:48:17;7.50;99.90
11083;DHT22;5595;50.186;8.468;2023-03-21T03:50:52;7.40;99.90
11083;DHT22;5595;50.186;8.468;2023-03-21T03:53:23;7.50;99.90
11083;DHT22;5595;50.186;8.468;2023-03-21T03:55:52;7.60;99.90
11083;DHT22;5595;50.186;8.468;2023-03-21T03:58:21;7.60;99.90
11083;DHT22;5595;50.186;8.468;2023-03-21T04:00:50;7.70;99.90
11083;DHT22;5595;50.186;8.468;2023-03-21T04:03:17;7.70;99.90
11083;DHT22;5595;50.186;8.468;2023-03-21T04:05:44;7.80;99.90
11083;DHT22;5595;50.186;8.468;2023-03-21T04:08:12;7.80;99.90
11083;DHT22;5595;50.186;8.468;2023-03-21T04:10:41;7.90;99.90
11083;DHT22;5595;50.186;8.468;2023-03-21T04:13:08;7.90;99.90
11083;DHT22;5595;50.186;8.468;2023-03-21T04:15:36;7.80;99.90
11083;DHT22;5595;50.186;8.468;2023-03-21T04:18:03;7.90;99.90
11083;DHT22;5595;50.186;8.468;2023-03-21T04:20:30;8.00;99.90
11083;DHT22;5595;50.186;8.468;2023-03-21T04:22:57;8.10;99.90
11083;DHT22;5595;50.186;8.468;2023-03-21T04:25:24;8.00;99.90
11083;DHT22;5595;50.186;8.468;2023-03-21T04:27:54;8.10;99.90
11083;DHT22;5595;50.186;8.468;2023-03-21T04:30:21;7.90;99.90
11083;DHT22;5595;50.186;8.468;2023-03-21T04:32:49;8.00;99.90
11083;DHT22;5595;50.186;8.468;2023-03-21T04:35:21;8.00;99.90
11083;DHT22;5595;50.186;8.468;2023-03-21T04:37:48;8.00;99.90
11083;DHT22;5595;50.186;8.468;2023-03-21T04:40:15;8.10;99.90
11083;DHT22;5595;50.186;8.468;2023-03-21T04:42:44;8.50;99.90
11083;DHT22;5595;50.186;8.468;2023-03-21T04:45:12;8.10;99.90
11083;DHT22;5595;50.186;8.468;2023-03-21T04:47:40;8.10;99.90
11083;DHT22;5595;50.186;8.468;2023-03-21T04:50:08;8.20;99.90
11083;DHT22;5595;50.186;8.468;2023-03-21T04:52:35;8.20;99.90
11083;DHT22;5595;50.186;8.468;2023-03-21T04:55:03;8.20;99.90
11083;DHT22;5595;50.186;8.468;2023-03-21T04:57:34;8.20;99.90
11083;DHT22;5595;50.186;8.468;2023-03-21T05:00:02;8.00;99.90
11083;DHT22;5595;50.186;8.468;2023-03-21T05:02:33;7.90;99.90
11083;DHT22;5595;50.186;8.468;2023-03-21T05:05:00;8.00;99.90
11083;DHT22;5595;50.186;8.468;2023-03-21T05:07:27;8.00;99.90
11083;DHT22;5595;50.186;8.468;2023-03-21T05:09:55;7.90;99.90
11083;DHT22;5595;50.186;8.468;2023-03-21T05:12:22;7.90;99.90
11083;DHT22;5595;50.186;8.468;2023-03-21T05:14:49;8.10;99.90
11083;DHT22;5595;50.186;8.468;2023-03-21T05:17:16;7.90;99.90
11083;DHT22;5595;50.186;8.468;2023-03-21T05:19:50;7.80;99.90
11083;DHT22;5595;50.186;8.468;2023-03-21T05:22:19;7.80;99.90
11083;DHT22;5595;50.186;8.468;2023-03-21T05:24:46;7.80;99.90
11083;DHT22;5595;50.186;8.468;2023-03-21T05:27:15;7.90;99.90
11083;DHT22;5595;50.186;8.468;2023-03-21T05:30:00;7.90;99.90
11083;DHT22;5595;50.186;8.468;2023-03-21T05:32:27;7.80;99.90
11083;DHT22;5595;50.186;8.468;2023-03-21T05:34:56;7.90;99.90
11083;DHT22;5595;50.186;8.468;2023-03-21T05:37:23;7.90;99.90
11083;DHT22;5595;50.186;8.468;2023-03-21T05:39:50;8.10;99.90
11083;DHT22;5595;50.186;8.468;2023-03-21T05:42:18;8.00;99.90
11083;DHT22;5595;50.186;8.468;2023-03-21T05:44:45;8.00;99.90
11083;DHT22;5595;50.186;8.468;2023-03-21T05:47:12;8.10;99.90
11083;DHT22;5595;50.186;8.468;2023-03-21T05:49:40;8.10;99.90
11083;DHT22;5595;50.186;8.468;2023-03-21T05:52:09;8.10;99.90
11083;DHT22;5595;50.186;8.468;2023-03-21T05:54:36;8.10;99.90
11083;DHT22;5595;50.186;8.468;2023-03-21T05:57:03;8.00;99.90
11083;DHT22;5595;50.186;8.468;2023-03-21T05:59:30;8.10;99.90
11083;DHT22;5595;50.186;8.468;2023-03-21T06:02:00;8.10;99.90
11083;DHT22;5595;50.186;8.468;2023-03-21T06:04:27;8.20;99.90
11083;DHT22;5595;50.186;8.468;2023-03-21T06:06:54;8.30;99.90
11083;DHT22;5595;50.186;8.468;2023-03-21T06:09:22;8.30;99.90
11083;DHT22;5595;50.186;8.468;2023-03-21T06:11:52;8.40;99.90
11083;DHT22;5595;50.186;8.468;2023-03-21T06:14:20;8.00;99.90
11083;DHT22;5595;50.186;8.468;2023-03-21T06:16:47;8.60;99.90
11083;DHT22;5595;50.186;8.468;2023-03-21T06:19:15;8.70;99.90
11083;DHT22;5595;50.186;8.468;2023-03-21T06:21:42;9.00;99.90
11083;DHT22;5595;50.186;8.468;2023-03-21T06:24:09;9.00;99.90
11083;DHT22;5595;50.186;8.468;2023-03-21T06:26:37;9.30;99.90
11083;DHT22;5595;50.186;8.468;2023-03-21T06:29:07;9.40;99.90
11083;DHT22;5595;50.186;8.468;2023-03-21T06:31:36;9.50;99.90
11083;DHT22;5595;50.186;8.468;2023-03-21T06:34:03;9.50;99.90
11083;DHT22;5595;50.186;8.468;2023-03-21T06:36:30;9.90;99.90
11083;DHT22;5595;50.186;8.468;2023-03-21T06:38:57;9.70;99.90
11083;DHT22;5595;50.186;8.468;2023-03-21T06:41:24;9.70;99.90
11083;DHT22;5595;50.186;8.468;2023-03-21T06:43:52;9.80;99.90
11083;DHT22;5595;50.186;8.468;2023-03-21T06:46:19;10.00;99.90
11083;DHT22;5595;50.186;8.468;2023-03-21T06:48:46;10.10;99.90
11083;DHT22;5595;50.186;8.468;2023-03-21T06:51:14;10.40;99.90
11083;DHT22;5595;50.186;8.468;2023-03-21T06:53:41;10.40;99.90
11083;DHT22;5595;50.186;8.468;2023-03-21T06:56:09;10.50;99.90
11083;DHT22;5595;50.186;8.468;2023-03-21T06:58:37;10.50;99.90
11083;DHT22;5595;50.186;8.468;2023-03-21T07:01:06;10.70;99.90
11083;DHT22;5595;50.186;8.468;2023-03-21T07:03:33;10.80;99.90
11083;DHT22;5595;50.186;8.468;2023-03-21T07:06:04;10.80;99.90
11083;DHT22;5595;50.186;8.468;2023-03-21T07:08:31;11.00;99.90
11083;DHT22;5595;50.186;8.468;2023-03-21T07:10:59;11.00;99.90
11083;DHT22;5595;50.186;8.468;2023-03-21T07:13:26;10.90;99.90
11083;DHT22;5595;50.186;8.468;2023-03-21T07:15:53;10.80;99.90
11083;DHT22;5595;50.186;8.468;2023-03-21T07:18:21;11.00;99.90
11083;DHT22;5595;50.186;8.468;2023-03-21T07:20:50;11.10;99.90
11083;DHT22;5595;50.186;8.468;2023-03-21T07:23:17;11.10;99.90
11083;DHT22;5595;50.186;8.468;2023-03-21T07:25:46;11.20;99.90
11083;DHT22;5595;50.186;8.468;2023-03-21T07:28:13;11.30;99.90
11083;DHT22;5595;50.186;8.468;2023-03-21T07:30:41;11.40;99.90
11083;DHT22;5595;50.186;8.468;2023-03-21T07:33:08;11.50;99.90
11083;DHT22;5595;50.186;8.468;2023-03-21T07:35:37;11.70;99.90
11083;DHT22;5595;50.186;8.468;2023-03-21T07:38:04;11.60;99.90
11083;DHT22;5595;50.186;8.468;2023-03-21T07:40:31;11.90;99.90
11083;DHT22;5595;50.186;8.468;2023-03-21T07:42:58;12.00;99.90
11083;DHT22;5595;50.186;8.468;2023-03-21T07:45:25;12.00;99.90
11083;DHT22;5595;50.186;8.468;2023-03-21T07:47:52;12.00;99.90
11083;DHT22;5595;50.186;8.468;2023-03-21T07:50:20;12.00;99.90
11083;DHT22;5595;50.186;8.468;2023-03-21T07:52:48;11.80;99.90
11083;DHT22;5595;50.186;8.468;2023-03-21T07:55:15;11.90;99.90
11083;DHT22;5595;50.186;8.468;2023-03-21T07:57:43;11.90;99.90
11083;DHT22;5595;50.186;8.468;2023-03-21T08:00:12;11.90;99.90
11083;DHT22;5595;50.186;8.468;2023-03-21T08:02:48;11.90;99.90
11083;DHT22;5595;50.186;8.468;2023-03-21T08:05:15;11.80;99.90
11083;DHT22;5595;50.186;8.468;2023-03-21T08:07:43;11.80;99.90
11083;DHT22;5595;50.186;8.468;2023-03-21T08:10:12;11.70;99.90
11083;DHT22;5595;50.186;8.468;2023-03-21T08:12:39;11.80;99.90
11083;DHT22;5595;50.186;8.468;2023-03-21T08:15:07;11.60;99.90
11083;DHT22;5595;50.186;8.468;2023-03-21T08:17:34;11.60;99.90
11083;DHT22;5595;50.186;8.468;2023-03-21T08:20:03;11.60;99.90
11083;DHT22;5595;50.186;8.468;2023-03-21T08:22:32;11.70;99.90
11083;DHT22;5595;50.186;8.468;2023-03-21T08:24:59;11.70;99.90
11083;DHT22;5595;50.186;8.468;2023-03-21T08:27:27;11.50;99.90
11083;DHT22;5595;50.186;8.468;2023-03-21T08:29:54;11.70;99.90
11083;DHT22;5595;50.186;8.468;2023-03-21T08:32:21;11.70;99.90
11083;DHT22;5595;50.186;8.468;2023-03-21T08:34:53;11.60;99.90
11083;DHT22;5595;50.186;8.468;2023-03-21T08:37:20;11.60;99.90
11083;DHT22;5595;50.186;8.468;2023-03-21T08:39:47;11.70;99.90
11083;DHT22;5595;50.186;8.468;2023-03-21T08:42:14;11.70;99.90
11083;DHT22;5595;50.186;8.468;2023-03-21T08:44:42;11.90;99.90
11083;DHT22;5595;50.186;8.468;2023-03-21T08:47:10;11.90;99.90
11083;DHT22;5595;50.186;8.468;2023-03-21T08:49:37;11.90;99.90
11083;DHT22;5595;50.186;8.468;2023-03-21T08:52:05;12.00;99.90
11083;DHT22;5595;50.186;8.468;2023-03-21T08:54:32;11.90;99.90
11083;DHT22;5595;50.186;8.468;2023-03-21T08:56:59;12.00;99.90
11083;DHT22;5595;50.186;8.468;2023-03-21T08:59:26;12.00;99.90
11083;DHT22;5595;50.186;8.468;2023-03-21T09:01:54;12.30;99.90
11083;DHT22;5595;50.186;8.468;2023-03-21T09:04:21;12.10;99.90
11083;DHT22;5595;50.186;8.468;2023-03-21T09:06:50;12.20;99.90
11083;DHT22;5595;50.186;8.468;2023-03-21T09:09:17;12.30;99.90
11083;DHT22;5595;50.186;8.468;2023-03-21T09:11:44;12.40;99.90
11083;DHT22;5595;50.186;8.468;2023-03-21T09:14:11;12.50;99.90
11083;DHT22;5595;50.186;8.468;2023-03-21T09:16:38;12.50;99.90
11083;DHT22;5595;50.186;8.468;2023-03-21T09:19:07;12.70;99.90
11083;DHT22;5595;50.186;8.468;2023-03-21T09:21:34;12.80;99.90
11083;DHT22;5595;50.186;8.468;2023-03-21T09:24:01;12.90;99.90
11083;DHT22;5595;50.186;8.468;2023-03-21T09:26:31;13.00;99.90
11083;DHT22;5595;50.186;8.468;2023-03-21T09:28:58;12.80;99.90
11083;DHT22;5595;50.186;8.468;2023-03-21T09:31:25;12.90;99.90
11083;DHT22;5595;50.186;8.468;2023-03-21T09:33:53;12.80;99.90
11083;DHT22;5595;50.186;8.468;2023-03-21T09:36:25;12.90;99.90
11083;DHT22;5595;50.186;8.468;2023-03-21T09:38:53;13.10;99.90
11083;DHT22;5595;50.186;8.468;2023-03-21T09:41:43;13.20;99.90
11083;DHT22;5595;50.186;8.468;2023-03-21T09:44:24;13.10;99.90
11083;DHT22;5595;50.186;8.468;2023-03-21T09:46:59;13.20;99.90
11083;DHT22;5595;50.186;8.468;2023-03-21T09:49:30;13.30;99.90
11083;DHT22;5595;50.186;8.468;2023-03-21T09:52:05;13.30;99.90
11083;DHT22;5595;50.186;8.468;2023-03-21T09:54:36;13.30;99.90
11083;DHT22;5595;50.186;8.468;2023-03-21T09:57:10;13.50;99.90
11083;DHT22;5595;50.186;8.468;2023-03-21T09:59:44;13.60;99.90
11083;DHT22;5595;50.186;8.468;2023-03-21T10:02:20;13.70;99.90
11083;DHT22;5595;50.186;8.468;2023-03-21T10:04:56;13.70;99.90
11083;DHT22;5595;50.186;8.468;2023-03-21T10:07:25;13.70;99.90
11083;DHT22;5595;50.186;8.468;2023-03-21T10:09:56;14.00;99.90
11083;DHT22;5595;50.186;8.468;2023-03-21T10:12:24;14.00;99.90
11083;DHT22;5595;50.186;8.468;2023-03-21T10:14:57;13.60;99.90
11083;DHT22;5595;50.186;8.468;2023-03-21T10:17:30;13.60;99.90
11083;DHT22;5595;50.186;8.468;2023-03-21T10:20:09;13.60;99.90
11083;DHT22;5595;50.186;8.468;2023-03-21T10:22:39;13.70;99.90
11083;DHT22;5595;50.186;8.468;2023-03-21T10:25:10;13.60;99.90
11083;DHT22;5595;50.186;8.468;2023-03-21T10:27:39;13.60;99.90
11083;DHT22;5595;50.186;8.468;2023-03-21T10:30:10;13.50;99.90
11083;DHT22;5595;50.186;8.468;2023-03-21T10:32:41;13.30;99.90
11083;DHT22;5595;50.186;8.468;2023-03-21T10:35:11;13.10;99.90
11083;DHT22;5595;50.186;8.468;2023-03-21T10:37:40;13.00;99.90
11083;DHT22;5595;50.186;8.468;2023-03-21T10:40:13;12.90;99.90
11083;DHT22;5595;50.186;8.468;2023-03-21T10:42:41;12.90;99.90
11083;DHT22;5595;50.186;8.468;2023-03-21T10:45:14;12.80;99.90
11083;DHT22;5595;50.186;8.468;2023-03-21T10:47:42;12.70;99.90
11083;DHT22;5595;50.186;8.468;2023-03-21T10:50:14;12.70;99.90
11083;DHT22;5595;50.186;8.468;2023-03-21T10:52:46;12.70;99.90
11083;DHT22;5595;50.186;8.468;2023-03-21T10:55:22;12.80;99.90
11083;DHT22;5595;50.186;8.468;2023-03-21T10:57:55;12.90;99.90
11083;DHT22;5595;50.186;8.468;2023-03-21T11:00:26;13.10;99.90
11083;DHT22;5595;50.186;8.468;2023-03-21T11:02:54;12.80;99.90
11083;DHT22;5595;50.186;8.468;2023-03-21T11:05:32;12.90;99.90
11083;DHT22;5595;50.186;8.468;2023-03-21T11:08:03;12.70;99.90
11083;DHT22;5595;50.186;8.468;2023-03-21T11:10:33;12.90;99.90
11083;DHT22;5595;50.186;8.468;2023-03-21T11:13:05;12.80;99.90
11083;DHT22;5595;50.186;8.468;2023-03-21T11:15:39;12.80;99.90
11083;DHT22;5595;50.186;8.468;2023-03-21T11:18:14;12.80;99.90
11083;DHT22;5595;50.186;8.468;2023-03-21T11:20:48;12.70;99.90
11083;DHT22;5595;50.186;8.468;2023-03-21T11:23:17;12.70;99.90
11083;DHT22;5595;50.186;8.468;2023-03-21T11:25:46;12.60;99.90
11083;DHT22;5595;50.186;8.468;2023-03-21T11:28:16;12.60;99.90
11083;DHT22;5595;50.186;8.468;2023-03-21T11:30:51;12.50;99.90
11083;DHT22;5595;50.186;8.468;2023-03-21T11:33:21;12.60;99.90
11083;DHT22;5595;50.186;8.468;2023-03-21T11:35:59;12.70;99.90
11083;DHT22;5595;50.186;8.468;2023-03-21T11:38:30;12.80;99.90
11083;DHT22;5595;50.186;8.468;2023-03-21T11:40:59;12.80;99.90
11083;DHT22;5595;50.186;8.468;2023-03-21T11:43:29;12.80;99.90
11083;DHT22;5595;50.186;8.468;2023-03-21T11:45:58;12.90;99.90
11083;DHT22;5595;50.186;8.468;2023-03-21T11:48:26;12.90;99.90
11083;DHT22;5595;50.186;8.468;2023-03-21T11:50:59;13.10;99.90
11083;DHT22;5595;50.186;8.468;2023-03-21T11:53:34;13.10;99.90
11083;DHT22;5595;50.186;8.468;2023-03-21T11:56:19;13.20;99.90
11083;DHT22;5595;50.186;8.468;2023-03-21T11:59:17;13.40;99.90
11083;DHT22;5595;50.186;8.468;2023-03-21T12:04:38;13.40;99.90
11083;DHT22;5595;50.186;8.468;2023-03-21T12:10:14;13.40;99.90
11083;DHT22;5595;50.186;8.468;2023-03-21T12:12:51;13.30;99.90
11083;DHT22;5595;50.186;8.468;2023-03-21T12:15:24;13.30;99.90
11083;DHT22;5595;50.186;8.468;2023-03-21T12:17:59;13.40;99.90
11083;DHT22;5595;50.186;8.468;2023-03-21T12:20:39;13.30;99.90
11083;DHT22;5595;50.186;8.468;2023-03-21T12:23:20;13.40;99.90
11083;DHT22;5595;50.186;8.468;2023-03-21T12:25:55;13.50;99.90
11083;DHT22;5595;50.186;8.468;2023-03-21T12:28:35;13.60;99.90
11083;DHT22;5595;50.186;8.468;2023-03-21T12:31:14;13.70;99.90
11083;DHT22;5595;50.186;8.468;2023-03-21T12:33:54;13.80;99.90
11083;DHT22;5595;50.186;8.468;2023-03-21T12:36:36;14.00;99.90
11083;DHT22;5595;50.186;8.468;2023-03-21T12:39:15;14.00;99.90
11083;DHT22;5595;50.186;8.468;2023-03-21T12:41:59;14.00;99.90
11083;DHT22;5595;50.186;8.468;2023-03-21T12:44:32;14.00;99.90
11083;DHT22;5595;50.186;8.468;2023-03-21T12:47:03;14.00;99.90
11083;DHT22;5595;50.186;8.468;2023-03-21T12:49:36;14.00;99.90
11083;DHT22;5595;50.186;8.468;2023-03-21T12:52:06;14.00;99.90
11083;DHT22;5595;50.186;8.468;2023-03-21T12:54:37;13.80;99.90
11083;DHT22;5595;50.186;8.468;2023-03-21T12:57:09;13.70;99.90
11083;DHT22;5595;50.186;8.468;2023-03-21T12:59:45;13.50;99.90
11083;DHT22;5595;50.186;8.468;2023-03-21T13:02:19;13.40;99.90
11083;DHT22;5595;50.186;8.468;2023-03-21T13:04:55;13.20;99.90
11083;DHT22;5595;50.186;8.468;2023-03-21T13:07:26;13.20;99.90
11083;DHT22;5595;50.186;8.468;2023-03-21T13:09:54;13.20;99.90
11083;DHT22;5595;50.186;8.468;2023-03-21T13:12:39;13.20;99.90
11083;DHT22;5595;50.186;8.468;2023-03-21T13:15:29;13.20;99.90
11083;DHT22;5595;50.186;8.468;2023-03-21T13:18:03;13.10;99.90
11083;DHT22;5595;50.186;8.468;2023-03-21T13:20:36;12.90;99.90
11083;DHT22;5595;50.186;8.468;2023-03-21T13:23:08;13.10;99.90
11083;DHT22;5595;50.186;8.468;2023-03-21T13:25:41;12.80;99.90
11083;DHT22;5595;50.186;8.468;2023-03-21T13:28:17;12.80;99.90
11083;DHT22;5595;50.186;8.468;2023-03-21T13:30:46;13.20;99.90
11083;DHT22;5595;50.186;8.468;2023-03-21T13:33:15;12.60;99.90
11083;DHT22;5595;50.186;8.468;2023-03-21T13:35:44;12.60;99.90
11083;DHT22;5595;50.186;8.468;2023-03-21T13:38:15;12.60;99.90
11083;DHT22;5595;50.186;8.468;2023-03-21T13:40:44;12.60;99.90
11083;DHT22;5595;50.186;8.468;2023-03-21T13:43:39;12.50;99.90
11083;DHT22;5595;50.186;8.468;2023-03-21T13:46:07;12.50;99.90
11083;DHT22;5595;50.186;8.468;2023-03-21T13:48:54;12.40;99.90
11083;DHT22;5595;50.186;8.468;2023-03-21T13:51:37;12.20;99.90
11083;DHT22;5595;50.186;8.468;2023-03-21T13:54:17;12.00;99.90
11083;DHT22;5595;50.186;8.468;2023-03-21T13:56:49;12.00;99.90
11083;DHT22;5595;50.186;8.468;2023-03-21T13:59:34;12.00;99.90
11083;DHT22;5595;50.186;8.468;2023-03-21T14:05:01;12.10;99.90
11083;DHT22;5595;50.186;8.468;2023-03-21T14:07:29;12.10;99.90
11083;DHT22;5595;50.186;8.468;2023-03-21T14:09:59;12.20;99.90
11083;DHT22;5595;50.186;8.468;2023-03-21T14:12:29;12.20;99.90
11083;DHT22;5595;50.186;8.468;2023-03-21T14:15:05;12.20;99.90
11083;DHT22;5595;50.186;8.468;2023-03-21T14:17:34;12.20;99.90
11083;DHT22;5595;50.186;8.468;2023-03-21T14:20:05;12.20;99.90
11083;DHT22;5595;50.186;8.468;2023-03-21T14:22:37;12.50;99.90
11083;DHT22;5595;50.186;8.468;2023-03-21T14:25:09;12.20;99.90
11083;DHT22;5595;50.186;8.468;2023-03-21T14:27:36;12.10;99.90
11083;DHT22;5595;50.186;8.468;2023-03-21T14:30:09;12.10;99.90
11083;DHT22;5595;50.186;8.468;2023-03-21T14:32:37;12.10;99.90
11083;DHT22;5595;50.186;8.468;2023-03-21T14:35:10;12.00;99.90
11083;DHT22;5595;50.186;8.468;2023-03-21T14:37:39;12.00;99.90
11083;DHT22;5595;50.186;8.468;2023-03-21T14:40:18;11.90;99.90
11083;DHT22;5595;50.186;8.468;2023-03-21T14:42:46;11.80;99.90
11083;DHT22;5595;50.186;8.468;2023-03-21T14:45:17;11.70;99.90
11083;DHT22;5595;50.186;8.468;2023-03-21T14:47:54;11.70;99.90
11083;DHT22;5595;50.186;8.468;2023-03-21T14:50:23;11.60;99.90
11083;DHT22;5595;50.186;8.468;2023-03-21T14:52:52;11.60;99.90
11083;DHT22;5595;50.186;8.468;2023-03-21T14:55:19;11.40;99.90
11083;DHT22;5595;50.186;8.468;2023-03-21T14:57:47;11.70;99.90
11083;DHT22;5595;50.186;8.468;2023-03-21T15:00:20;11.80;99.90
11083;DHT22;5595;50.186;8.468;2023-03-21T15:02:48;12.30;99.90
11083;DHT22;5595;50.186;8.468;2023-03-21T15:05:20;12.00;99.90
11083;DHT22;5595;50.186;8.468;2023-03-21T15:07:53;12.10;99.90
11083;DHT22;5595;50.186;8.468;2023-03-21T15:10:21;12.30;99.90
11083;DHT22;5595;50.186;8.468;2023-03-21T15:12:49;12.20;99.90
11083;DHT22;5595;50.186;8.468;2023-03-21T15:15:19;12.30;99.90
11083;DHT22;5595;50.186;8.468;2023-03-21T15:17:47;12.40;99.90
11083;DHT22;5595;50.186;8.468;2023-03-21T15:20:18;12.30;99.90
11083;DHT22;5595;50.186;8.468;2023-03-21T15:22:48;12.40;99.90
11083;DHT22;5595;50.186;8.468;2023-03-21T15:25:19;12.30;99.90
11083;DHT22;5595;50.186;8.468;2023-03-21T15:27:48;12.20;99.90
11083;DHT22;5595;50.186;8.468;2023-03-21T15:30:21;11.80;99.90
11083;DHT22;5595;50.186;8.468;2023-03-21T15:32:48;12.10;99.90
11083;DHT22;5595;50.186;8.468;2023-03-21T15:35:20;12.10;99.90
11083;DHT22;5595;50.186;8.468;2023-03-21T15:37:53;12.00;99.90
11083;DHT22;5595;50.186;8.468;2023-03-21T15:40:24;12.20;99.90
11083;DHT22;5595;50.186;8.468;2023-03-21T15:43:05;11.90;99.90
11083;DHT22;5595;50.186;8.468;2023-03-21T15:45:45;11.90;99.90
11083;DHT22;5595;50.186;8.468;2023-03-21T15:48:13;11.80;99.90
11083;DHT22;5595;50.186;8.468;2023-03-21T15:50:42;11.80;99.90
11083;DHT22;5595;50.186;8.468;2023-03-21T15:53:16;11.80;99.90
11083;DHT22;5595;50.186;8.468;2023-03-21T15:55:46;11.90;99.90
11083;DHT22;5595;50.186;8.468;2023-03-21T15:58:16;11.70;99.90
11083;DHT22;5595;50.186;8.468;2023-03-21T16:00:49;12.10;99.90
11083;DHT22;5595;50.186;8.468;2023-03-21T16:03:20;11.60;99.90
11083;DHT22;5595;50.186;8.468;2023-03-21T16:06:07;11.70;99.90
11083;DHT22;5595;50.186;8.468;2023-03-21T16:08:44;11.70;99.90
11083;DHT22;5595;50.186;8.468;2023-03-21T16:11:17;11.70;99.90
11083;DHT22;5595;50.186;8.468;2023-03-21T16:13:44;12.00;99.90
11083;DHT22;5595;50.186;8.468;2023-03-21T16:16:16;11.70;99.90
11083;DHT22;5595;50.186;8.468;2023-03-21T16:18:44;11.70;99.90
11083;DHT22;5595;50.186;8.468;2023-03-21T16:21:11;12.00;99.90
11083;DHT22;5595;50.186;8.468;2023-03-21T16:23:39;11.50;99.90
11083;DHT22;5595;50.186;8.468;2023-03-21T16:26:08;11.30;99.90
11083;DHT22;5595;50.186;8.468;2023-03-21T16:28:36;11.20;99.90
11083;DHT22;5595;50.186;8.468;2023-03-21T16:31:03;11.10;99.90